Time;durP1;ratioP1;P1;durP2;ratioP2;P2;SDS_P1;SDS_P2;PMS_P1;PMS_P2;Temp;Humidity;BMP_temperature;BMP_pressure;BME280_temperature;BME280_humidity;BME280_pressure;Samples;Min_cycle;Max_cycle;Signal;HPM_P1;HPM_P2
2022/12/01 00:01:35;;;;;;;91.93;36.85;;;;;;;;;;5052004;28;20044;-71
2022/12/01 00:04:02;;;;;;;98.85;37.95;;;;;;;;;;5071160;28;20071;-70
2022/12/01 00:06:28;;;;;;;106.93;38.40;;;;;;;;;;5073738;28;20062;-71
2022/12/01 00:11:38;;;;;;;76.25;33.88;;;;;;;;;;5072099;28;20048;-70
2022/12/01 00:14:05;;;;;;;88.80;36.45;;;;;;;;;;5072453;28;20054;-70
2022/12/01 00:16:31;;;;;;;87.90;36.35;;;;;;;;;;5068117;28;20041;-70
2022/12/01 00:18:57;;;;;;;85.25;36.63;;;;;;;;;;5065936;28;20040;-70
2022/12/01 00:21:25;;;;;;;87.65;36.15;;;;;;;;;;5064492;28;20040;-70
2022/12/01 00:23:52;;;;;;;81.85;35.80;;;;;;;;;;5049106;28;20519;-70
2022/12/01 00:26:19;;;;;;;80.35;35.67;;;;;;;;;;5068284;28;20797;-70
2022/12/01 00:28:52;;;;;;;73.68;33.42;;;;;;;;;;5068929;28;20507;-71
2022/12/01 00:31:19;;;;;;;83.47;38.22;;;;;;;;;;5068340;28;20094;-70
2022/12/01 00:33:45;;;;;;;84.30;37.05;;;;;;;;;;5066440;28;20444;-70
2022/12/01 00:36:11;;;;;;;92.07;36.83;;;;;;;;;;5067631;28;20040;-70
2022/12/01 00:38:37;;;;;;;86.80;36.00;;;;;;;;;;5073836;28;20414;-70
2022/12/01 00:41:04;;;;;;;99.13;37.13;;;;;;;;;;5047674;28;20048;-70
2022/12/01 00:43:30;;;;;;;84.53;36.42;;;;;;;;;;5068626;28;20083;-70
2022/12/01 00:45:57;;;;;;;86.88;36.60;;;;;;;;;;5067997;28;20033;-70
2022/12/01 00:48:23;;;;;;;99.10;39.53;;;;;;;;;;5052414;28;20044;-70
2022/12/01 00:50:51;;;;;;;106.53;42.13;;;;;;;;;;5069982;28;20113;-70
2022/12/01 00:53:17;;;;;;;105.95;41.65;;;;;;;;;;5069814;28;20060;-71
2022/12/01 00:55:43;;;;;;;106.75;43.53;;;;;;;;;;5070866;28;20037;-70
2022/12/01 00:58:09;;;;;;;103.65;40.40;;;;;;;;;;5070608;28;20036;-70
2022/12/01 01:00:39;;;;;;;115.90;41.83;;;;;;;;;;5052505;28;20045;-70
2022/12/01 01:03:06;;;;;;;125.05;44.75;;;;;;;;;;5070027;28;20119;-70
2022/12/01 01:05:36;;;;;;;110.68;41.83;;;;;;;;;;5068571;28;20388;-71
2022/12/01 01:08:06;;;;;;;108.95;43.20;;;;;;;;;;5072229;28;20098;-70
2022/12/01 01:10:32;;;;;;;90.47;37.60;;;;;;;;;;5072333;28;20063;-70
2022/12/01 01:12:58;;;;;;;88.78;36.20;;;;;;;;;;5068689;28;20072;-70
2022/12/01 01:15:25;;;;;;;102.60;38.13;;;;;;;;;;5068916;28;20041;-71
2022/12/01 01:17:51;;;;;;;98.07;39.65;;;;;;;;;;5069692;28;20446;-70
2022/12/01 01:20:17;;;;;;;102.60;39.78;;;;;;;;;;5050378;28;20048;-70
2022/12/01 01:22:43;;;;;;;97.13;40.60;;;;;;;;;;5074807;28;20047;-70
2022/12/01 01:25:09;;;;;;;104.13;42.17;;;;;;;;;;5073759;28;20502;-70
2022/12/01 01:27:36;;;;;;;101.28;41.47;;;;;;;;;;5054226;28;20045;-70
2022/12/01 01:30:02;;;;;;;93.82;39.03;;;;;;;;;;5062549;28;20102;-69
2022/12/01 01:32:28;;;;;;;75.18;34.10;;;;;;;;;;5070683;28;20040;-69
2022/12/01 01:34:55;;;;;;;77.30;34.78;;;;;;;;;;5077735;28;20093;-70
2022/12/01 01:37:21;;;;;;;68.25;32.60;;;;;;;;;;5064080;28;20057;-70
2022/12/01 01:39:47;;;;;;;72.05;34.30;;;;;;;;;;5076126;28;20054;-69
2022/12/01 01:42:13;;;;;;;81.05;35.33;;;;;;;;;;5057130;28;20391;-70
2022/12/01 01:44:47;;;;;;;93.60;37.70;;;;;;;;;;5069172;28;20050;-70
2022/12/01 01:47:13;;;;;;;100.40;40.08;;;;;;;;;;5071182;28;20041;-69
2022/12/01 01:49:40;;;;;;;101.10;40.92;;;;;;;;;;5070461;28;20041;-70
2022/12/01 01:52:06;;;;;;;84.28;37.80;;;;;;;;;;5069000;28;20127;-70
2022/12/01 01:54:37;;;;;;;92.60;38.80;;;;;;;;;;5068255;28;20060;-70
2022/12/01 01:57:05;;;;;;;99.05;39.38;;;;;;;;;;5052717;28;20059;-70
2022/12/01 01:59:32;;;;;;;100.55;42.30;;;;;;;;;;5069154;28;20037;-70
2022/12/01 02:02:04;;;;;;;110.50;44.80;;;;;;;;;;5054916;28;20143;-70
2022/12/01 02:04:32;;;;;;;113.20;45.33;;;;;;;;;;5050868;28;20049;-70
2022/12/01 02:06:58;;;;;;;131.38;48.13;;;;;;;;;;5070877;28;20059;-69
2022/12/01 02:09:24;;;;;;;140.73;48.22;;;;;;;;;;5066509;28;20064;-70
2022/12/01 02:11:54;;;;;;;154.63;49.85;;;;;;;;;;5070670;28;20075;-70
2022/12/01 02:14:20;;;;;;;135.68;47.90;;;;;;;;;;5072365;28;20109;-70
2022/12/01 02:16:53;;;;;;;121.28;46.38;;;;;;;;;;5071039;28;20071;-70
2022/12/01 02:19:33;;;;;;;122.15;48.28;;;;;;;;;;5067945;28;20044;-69
2022/12/01 02:22:08;;;;;;;136.90;48.63;;;;;;;;;;5080595;28;20499;-70
2022/12/01 02:24:34;;;;;;;132.00;47.10;;;;;;;;;;5059041;28;20106;-70
2022/12/01 02:27:04;;;;;;;117.43;43.97;;;;;;;;;;5059557;28;20044;-70
2022/12/01 02:29:30;;;;;;;105.88;41.30;;;;;;;;;;5081311;28;20040;-70
2022/12/01 02:31:59;;;;;;;119.13;42.08;;;;;;;;;;5078459;28;20028;-70
2022/12/01 02:34:30;;;;;;;111.93;41.38;;;;;;;;;;5060451;28;20047;-69
2022/12/01 02:36:59;;;;;;;110.55;41.55;;;;;;;;;;5060458;28;20490;-70
2022/12/01 02:39:34;;;;;;;108.03;41.60;;;;;;;;;;5074420;28;20047;-70
2022/12/01 02:42:04;;;;;;;125.00;41.97;;;;;;;;;;5075084;28;20063;-70
2022/12/01 02:44:33;;;;;;;114.25;41.78;;;;;;;;;;5070607;28;20047;-70
2022/12/01 02:47:02;;;;;;;127.05;42.92;;;;;;;;;;5074337;28;20500;-70
2022/12/01 02:49:32;;;;;;;111.57;42.58;;;;;;;;;;5070964;28;20053;-70
2022/12/01 02:51:59;;;;;;;115.60;39.03;;;;;;;;;;5054662;28;20507;-70
2022/12/01 02:54:27;;;;;;;130.43;44.05;;;;;;;;;;5072013;28;20373;-70
2022/12/01 02:56:53;;;;;;;109.38;39.22;;;;;;;;;;5071814;28;20086;-70
2022/12/01 02:59:20;;;;;;;131.73;41.50;;;;;;;;;;5070638;28;21309;-70
2022/12/01 03:01:59;;;;;;;131.43;45.30;;;;;;;;;;5052862;28;20055;-70
2022/12/01 03:04:34;;;;;;;130.40;44.38;;;;;;;;;;5072825;28;20052;-70
2022/12/01 03:07:18;;;;;;;121.03;42.25;;;;;;;;;;5054581;28;20040;-71
2022/12/01 03:10:01;;;;;;;116.00;42.55;;;;;;;;;;5078108;28;20166;-70
2022/12/01 03:12:34;;;;;;;117.53;42.38;;;;;;;;;;5072838;28;20124;-70
2022/12/01 03:15:22;;;;;;;116.40;41.88;;;;;;;;;;5069982;28;20047;-70
2022/12/01 03:17:54;;;;;;;108.82;40.67;;;;;;;;;;5052943;28;20088;-70
2022/12/01 03:20:23;;;;;;;108.32;41.65;;;;;;;;;;5049977;28;20506;-70
2022/12/01 03:22:52;;;;;;;126.97;43.33;;;;;;;;;;5075093;28;20040;-70
2022/12/01 03:25:19;;;;;;;121.97;43.00;;;;;;;;;;5079756;28;20075;-70
2022/12/01 03:27:46;;;;;;;125.30;41.78;;;;;;;;;;5063575;28;20056;-70
2022/12/01 03:30:13;;;;;;;127.00;47.40;;;;;;;;;;5063488;28;20083;-70
2022/12/01 03:32:46;;;;;;;134.30;46.05;;;;;;;;;;5076449;28;20040;-71
2022/12/01 03:35:15;;;;;;;132.25;46.97;;;;;;;;;;5075034;28;20144;-70
2022/12/01 03:37:51;;;;;;;132.82;45.67;;;;;;;;;;5078697;28;20036;-70
2022/12/01 03:40:19;;;;;;;119.38;41.80;;;;;;;;;;5077870;28;20055;-71
2022/12/01 03:42:49;;;;;;;130.05;44.30;;;;;;;;;;5059145;28;20091;-71
2022/12/01 03:45:17;;;;;;;132.77;43.47;;;;;;;;;;5080948;28;20170;-70
2022/12/01 03:47:44;;;;;;;135.13;45.72;;;;;;;;;;5075849;28;20083;-70
2022/12/01 03:50:12;;;;;;;128.57;48.60;;;;;;;;;;5078687;28;20092;-70
2022/12/01 03:52:39;;;;;;;136.68;48.55;;;;;;;;;;5083525;28;20044;-70
2022/12/01 03:55:20;;;;;;;144.77;49.83;;;;;;;;;;5077140;28;20119;-70
2022/12/01 03:57:51;;;;;;;134.07;46.78;;;;;;;;;;5079192;28;20093;-70
2022/12/01 04:00:18;;;;;;;136.85;45.08;;;;;;;;;;5053398;28;20072;-70
2022/12/01 04:02:45;;;;;;;120.60;44.72;;;;;;;;;;5073278;28;20139;-70
2022/12/01 04:05:11;;;;;;;142.77;47.05;;;;;;;;;;5076001;28;20052;-70
2022/12/01 04:07:38;;;;;;;133.57;46.97;;;;;;;;;;5079340;28;20519;-70
2022/12/01 04:10:05;;;;;;;139.13;44.95;;;;;;;;;;5077207;28;20058;-70
2022/12/01 04:12:32;;;;;;;139.25;45.80;;;;;;;;;;5074690;28;20135;-70
2022/12/01 04:15:00;;;;;;;125.93;44.72;;;;;;;;;;5057007;28;20091;-70
2022/12/01 04:17:27;;;;;;;127.30;39.25;;;;;;;;;;5078939;28;20068;-70
2022/12/01 04:19:53;;;;;;;125.47;44.67;;;;;;;;;;5076954;28;20345;-70
2022/12/01 04:22:19;;;;;;;126.25;46.58;;;;;;;;;;5072148;28;20044;-70
2022/12/01 04:24:46;;;;;;;115.05;44.10;;;;;;;;;;5077613;28;20047;-70
2022/12/01 04:27:12;;;;;;;130.48;48.33;;;;;;;;;;5059752;28;20086;-70
2022/12/01 04:29:38;;;;;;;123.13;45.85;;;;;;;;;;5077211;28;20097;-70
2022/12/01 04:32:05;;;;;;;130.85;47.95;;;;;;;;;;5059762;28;20542;-70
2022/12/01 04:34:31;;;;;;;133.07;48.00;;;;;;;;;;5077334;28;20044;-71
2022/12/01 04:36:57;;;;;;;131.48;47.17;;;;;;;;;;5075958;28;20060;-70
2022/12/01 04:39:23;;;;;;;118.22;44.42;;;;;;;;;;5055337;28;20040;-70
2022/12/01 04:41:49;;;;;;;125.45;46.72;;;;;;;;;;5071136;28;20040;-70
2022/12/01 04:44:16;;;;;;;123.05;45.53;;;;;;;;;;5057357;28;20059;-70
2022/12/01 04:46:42;;;;;;;118.95;44.55;;;;;;;;;;5077508;28;20112;-70
2022/12/01 04:49:08;;;;;;;114.32;44.83;;;;;;;;;;5073977;28;20553;-70
2022/12/01 04:51:35;;;;;;;125.43;43.47;;;;;;;;;;5073964;28;20070;-70
2022/12/01 04:54:02;;;;;;;132.30;44.47;;;;;;;;;;5072005;28;20408;-70
2022/12/01 04:56:28;;;;;;;126.00;46.05;;;;;;;;;;5054565;28;20108;-70
2022/12/01 04:58:54;;;;;;;128.77;45.30;;;;;;;;;;5075573;28;20089;-70
2022/12/01 05:01:20;;;;;;;131.77;45.30;;;;;;;;;;5053697;28;20159;-70
2022/12/01 05:03:48;;;;;;;123.32;41.92;;;;;;;;;;5075258;28;20043;-70
2022/12/01 05:06:16;;;;;;;120.18;43.00;;;;;;;;;;5054868;28;20060;-70
2022/12/01 05:08:42;;;;;;;123.97;41.83;;;;;;;;;;5086787;28;20040;-70
2022/12/01 05:11:10;;;;;;;134.85;44.97;;;;;;;;;;5055626;28;21331;-70
2022/12/01 05:13:38;;;;;;;129.27;42.22;;;;;;;;;;5059109;28;20063;-70
2022/12/01 05:16:06;;;;;;;126.75;45.88;;;;;;;;;;5072699;28;20039;-70
2022/12/01 05:18:32;;;;;;;115.95;42.95;;;;;;;;;;5077326;28;20043;-70
2022/12/01 05:20:58;;;;;;;109.93;41.13;;;;;;;;;;5080475;28;20059;-70
2022/12/01 05:23:26;;;;;;;121.30;42.13;;;;;;;;;;5080670;28;20095;-70
2022/12/01 05:25:52;;;;;;;116.93;41.85;;;;;;;;;;5078936;28;20040;-70
2022/12/01 05:28:18;;;;;;;114.75;40.47;;;;;;;;;;5076242;28;20393;-70
2022/12/01 05:30:44;;;;;;;117.10;41.83;;;;;;;;;;5076948;28;20041;-70
2022/12/01 05:33:10;;;;;;;135.82;44.28;;;;;;;;;;5059154;28;20049;-70
2022/12/01 05:35:37;;;;;;;136.43;44.50;;;;;;;;;;5069171;28;20396;-71
2022/12/01 05:38:03;;;;;;;122.22;42.25;;;;;;;;;;5074157;28;20563;-70
2022/12/01 05:40:29;;;;;;;143.65;48.72;;;;;;;;;;5071806;28;20048;-70
2022/12/01 05:42:56;;;;;;;132.40;46.28;;;;;;;;;;5057005;28;20131;-70
2022/12/01 05:45:22;;;;;;;132.65;43.83;;;;;;;;;;5073251;28;20499;-70
2022/12/01 05:47:48;;;;;;;145.68;48.38;;;;;;;;;;5055510;28;20046;-70
2022/12/01 05:50:14;;;;;;;140.13;48.00;;;;;;;;;;5075556;28;20380;-70
2022/12/01 05:52:40;;;;;;;143.57;49.63;;;;;;;;;;5073715;28;20049;-83
2022/12/01 05:55:07;;;;;;;116.93;43.33;;;;;;;;;;5073322;28;20051;-70
2022/12/01 05:57:33;;;;;;;129.68;44.88;;;;;;;;;;5074554;28;20393;-70
2022/12/01 05:59:59;;;;;;;154.48;49.60;;;;;;;;;;5070424;28;20044;-69
2022/12/01 06:02:26;;;;;;;127.05;42.08;;;;;;;;;;5067482;28;20047;-69
2022/12/01 06:04:52;;;;;;;119.03;41.58;;;;;;;;;;5068293;28;20043;-69
2022/12/01 06:07:19;;;;;;;114.32;40.30;;;;;;;;;;5071977;28;20475;-69
2022/12/01 06:09:45;;;;;;;133.35;43.13;;;;;;;;;;5056648;28;20036;-69
2022/12/01 06:12:12;;;;;;;137.70;44.47;;;;;;;;;;5072798;28;20131;-69
2022/12/01 06:14:38;;;;;;;125.45;44.90;;;;;;;;;;5070679;28;20044;-69
2022/12/01 06:17:04;;;;;;;119.95;44.92;;;;;;;;;;5056322;28;20078;-69
2022/12/01 06:19:30;;;;;;;121.30;45.05;;;;;;;;;;5056100;28;20051;-69
2022/12/01 06:21:56;;;;;;;124.70;43.65;;;;;;;;;;5055462;28;20428;-69
2022/12/01 06:24:23;;;;;;;114.13;41.00;;;;;;;;;;5054880;28;20127;-69
2022/12/01 06:26:49;;;;;;;120.45;41.28;;;;;;;;;;5074691;28;20067;-69
2022/12/01 06:29:15;;;;;;;121.93;43.78;;;;;;;;;;5072600;28;20557;-69
2022/12/01 06:31:42;;;;;;;116.18;41.50;;;;;;;;;;5054648;28;20345;-69
2022/12/01 06:34:08;;;;;;;118.05;39.65;;;;;;;;;;5072458;28;20410;-70
2022/12/01 06:36:34;;;;;;;122.85;42.53;;;;;;;;;;5071084;28;20583;-69
2022/12/01 06:39:00;;;;;;;98.95;38.25;;;;;;;;;;5074797;28;20135;-70
2022/12/01 06:41:26;;;;;;;94.55;37.20;;;;;;;;;;5074531;28;20044;-70
2022/12/01 06:43:53;;;;;;;96.10;35.47;;;;;;;;;;5084188;28;20062;-69
2022/12/01 06:46:19;;;;;;;83.72;32.83;;;;;;;;;;5064654;28;20036;-70
2022/12/01 06:48:48;;;;;;;94.18;35.33;;;;;;;;;;5084156;28;20052;-69
2022/12/01 06:51:14;;;;;;;79.45;33.63;;;;;;;;;;5067361;28;20392;-70
2022/12/01 06:53:40;;;;;;;85.85;31.40;;;;;;;;;;5081525;28;20147;-68
2022/12/01 06:56:06;;;;;;;72.13;28.58;;;;;;;;;;5082475;28;20114;-69
2022/12/01 06:58:33;;;;;;;75.00;30.45;;;;;;;;;;5059329;28;20062;-69
2022/12/01 07:00:59;;;;;;;63.97;27.80;;;;;;;;;;5078145;28;20043;-69
2022/12/01 07:03:26;;;;;;;59.63;24.42;;;;;;;;;;5075449;28;20432;-69
2022/12/01 07:05:59;;;;;;;63.95;25.65;;;;;;;;;;5075763;28;20033;-69
2022/12/01 07:08:26;;;;;;;62.10;26.20;;;;;;;;;;5076784;28;20078;-69
2022/12/01 07:11:00;;;;;;;49.03;21.00;;;;;;;;;;5074459;28;20044;-69
2022/12/01 07:13:26;;;;;;;45.58;19.17;;;;;;;;;;5076282;28;20139;-70
2022/12/01 07:15:52;;;;;;;42.70;19.65;;;;;;;;;;5075604;28;20036;-69
2022/12/01 07:18:18;;;;;;;43.65;20.13;;;;;;;;;;5079588;28;20101;-69
2022/12/01 07:20:45;;;;;;;49.22;20.45;;;;;;;;;;5060640;28;20106;-69
2022/12/01 07:23:11;;;;;;;39.97;18.92;;;;;;;;;;5075533;28;20032;-69
2022/12/01 07:25:37;;;;;;;49.00;19.90;;;;;;;;;;5074079;28;20130;-70
2022/12/01 07:28:03;;;;;;;59.40;20.83;;;;;;;;;;5077233;28;20066;-66
2022/12/01 07:30:29;;;;;;;47.33;21.90;;;;;;;;;;5063309;28;20047;-69
2022/12/01 07:32:55;;;;;;;51.65;20.00;;;;;;;;;;5084548;28;20040;-69
2022/12/01 07:35:21;;;;;;;51.55;22.50;;;;;;;;;;5086598;28;20176;-70
2022/12/01 07:37:48;;;;;;;59.00;23.85;;;;;;;;;;5078540;28;20450;-69
2022/12/01 07:40:14;;;;;;;66.30;25.55;;;;;;;;;;5060837;28;20114;-69
2022/12/01 07:42:40;;;;;;;72.65;29.65;;;;;;;;;;5079538;28;20106;-69
2022/12/01 07:45:07;;;;;;;78.45;27.65;;;;;;;;;;5087606;28;20079;-69
2022/12/01 07:47:33;;;;;;;65.45;24.52;;;;;;;;;;5089057;28;20040;-69
2022/12/01 07:49:59;;;;;;;47.50;18.70;;;;;;;;;;5069570;28;20044;-69
2022/12/01 07:52:25;;;;;;;45.28;17.40;;;;;;;;;;5087908;28;20437;-69
2022/12/01 07:54:51;;;;;;;52.65;15.35;;;;;;;;;;5065483;28;20503;-69
2022/12/01 07:57:19;;;;;;;80.55;22.00;;;;;;;;;;5081067;28;20055;-69
2022/12/01 07:59:45;;;;;;;50.47;20.75;;;;;;;;;;5059761;28;20069;-69
2022/12/01 08:02:12;;;;;;;52.75;21.42;;;;;;;;;;5077514;28;20128;-69
2022/12/01 08:04:38;;;;;;;50.83;20.48;;;;;;;;;;5081273;28;20123;-68
2022/12/01 08:07:04;;;;;;;65.45;23.52;;;;;;;;;;5081016;28;20432;-69
2022/12/01 08:09:31;;;;;;;43.97;19.23;;;;;;;;;;5084314;28;20076;-69
2022/12/01 08:11:57;;;;;;;116.18;18.85;;;;;;;;;;5081500;28;20399;-69
2022/12/01 08:14:23;;;;;;;57.83;15.50;;;;;;;;;;5080856;28;20451;-69
2022/12/01 08:16:49;;;;;;;32.42;14.50;;;;;;;;;;5083310;28;20412;-68
2022/12/01 08:19:15;;;;;;;46.08;18.15;;;;;;;;;;5062928;28;20498;-69
2022/12/01 08:21:41;;;;;;;46.92;19.55;;;;;;;;;;5086725;28;20052;-69
2022/12/01 08:24:07;;;;;;;45.45;20.67;;;;;;;;;;5085425;28;20053;-69
2022/12/01 08:26:33;;;;;;;30.73;15.43;;;;;;;;;;5063154;28;20086;-69
2022/12/01 08:29:00;;;;;;;31.15;15.07;;;;;;;;;;5081931;28;20040;-69
2022/12/01 08:31:28;;;;;;;28.70;14.85;;;;;;;;;;5061989;28;20488;-69
2022/12/01 08:33:55;;;;;;;23.17;12.05;;;;;;;;;;5075803;28;20438;-69
2022/12/01 08:36:21;;;;;;;21.58;10.95;;;;;;;;;;5082553;28;20040;-69
2022/12/01 08:38:50;;;;;;;21.15;11.23;;;;;;;;;;5061341;28;20051;-69
2022/12/01 08:41:16;;;;;;;20.10;9.93;;;;;;;;;;5078257;28;20043;-69
2022/12/01 08:43:43;;;;;;;29.13;11.15;;;;;;;;;;5082981;28;20451;-69
2022/12/01 08:46:10;;;;;;;29.88;13.68;;;;;;;;;;5076687;28;20084;-69
2022/12/01 08:48:37;;;;;;;26.90;13.55;;;;;;;;;;5087760;28;20046;-69
2022/12/01 08:51:03;;;;;;;29.02;14.07;;;;;;;;;;5087328;28;20104;-69
2022/12/01 08:53:29;;;;;;;36.90;16.95;;;;;;;;;;5060772;28;20062;-69
2022/12/01 08:55:58;;;;;;;42.20;16.98;;;;;;;;;;5085212;28;20040;-68
2022/12/01 08:58:25;;;;;;;38.08;16.45;;;;;;;;;;5058708;28;20052;-69
2022/12/01 09:00:51;;;;;;;39.08;16.70;;;;;;;;;;5064835;28;20503;-69
2022/12/01 09:03:17;;;;;;;36.28;17.90;;;;;;;;;;5077616;28;20489;-69
2022/12/01 09:05:43;;;;;;;35.42;15.38;;;;;;;;;;5059229;28;20044;-69
2022/12/01 09:10:54;;;;;;;36.03;16.33;;;;;;;;;;5077925;28;20036;-69
2022/12/01 09:13:20;;;;;;;36.88;16.65;;;;;;;;;;5081706;28;20040;-69
2022/12/01 09:15:54;;;;;;;35.33;17.27;;;;;;;;;;5041847;28;20488;-69
2022/12/01 09:18:20;;;;;;;;;;;;;;;;;;5083352;28;20044;-69
2022/12/01 09:20:46;;;;;;;43.80;19.27;;;;;;;;;;5084009;28;20239;-69
2022/12/01 09:23:12;;;;;;;44.53;19.65;;;;;;;;;;5065522;28;20045;-69
2022/12/01 09:25:38;;;;;;;39.28;19.67;;;;;;;;;;5081388;28;20116;-69
2022/12/01 09:28:04;;;;;;;39.38;18.45;;;;;;;;;;5083608;28;20127;-69
2022/12/01 09:30:31;;;;;;;36.17;18.65;;;;;;;;;;5080036;28;20044;-69
2022/12/01 09:32:57;;;;;;;36.63;18.27;;;;;;;;;;5067098;28;20384;-69
2022/12/01 09:35:23;;;;;;;37.92;19.73;;;;;;;;;;5058328;28;20504;-68
2022/12/01 09:37:49;;;;;;;39.80;18.60;;;;;;;;;;5084668;28;20040;-66
2022/12/01 09:40:15;;;;;;;40.78;20.08;;;;;;;;;;5082357;28;20048;-69
2022/12/01 09:42:42;;;;;;;37.85;18.67;;;;;;;;;;5080960;28;20128;-69
2022/12/01 09:45:17;;;;;;;40.15;19.40;;;;;;;;;;5064045;28;20075;-68
2022/12/01 09:47:45;;;;;;;35.83;18.15;;;;;;;;;;5068772;28;20036;-69
2022/12/01 09:50:14;;;;;;;32.50;17.70;;;;;;;;;;5086949;28;20044;-69
2022/12/01 09:52:44;;;;;;;30.83;16.17;;;;;;;;;;5067587;28;20054;-69
2022/12/01 09:55:12;;;;;;;33.88;17.33;;;;;;;;;;5068354;28;20095;-69
2022/12/01 09:57:39;;;;;;;39.42;17.48;;;;;;;;;;5087561;28;20047;-69
2022/12/01 10:00:11;;;;;;;28.48;16.38;;;;;;;;;;5090756;28;20071;-69
2022/12/01 10:02:40;;;;;;;29.40;15.82;;;;;;;;;;5070139;28;20052;-69
2022/12/01 10:05:10;;;;;;;29.95;16.55;;;;;;;;;;5065995;28;20191;-68
2022/12/01 10:07:39;;;;;;;30.27;17.05;;;;;;;;;;5084609;28;20063;-70
2022/12/01 10:10:11;;;;;;;30.15;17.27;;;;;;;;;;5067680;28;20083;-70
2022/12/01 10:12:37;;;;;;;29.73;16.65;;;;;;;;;;5065140;28;20076;-70
2022/12/01 10:15:12;;;;;;;27.70;16.13;;;;;;;;;;5070770;28;20395;-70
2022/12/01 10:17:45;;;;;;;32.03;15.88;;;;;;;;;;5065482;28;20044;-70
2022/12/01 10:20:16;;;;;;;30.45;16.58;;;;;;;;;;5083520;28;20119;-70
2022/12/01 10:22:47;;;;;;;28.38;16.98;;;;;;;;;;5058305;28;20040;-70
2022/12/01 10:25:19;;;;;;;24.10;15.80;;;;;;;;;;5089525;28;20056;-70
2022/12/01 10:28:01;;;;;;;26.08;16.00;;;;;;;;;;5080051;28;20036;-70
2022/12/01 10:30:27;;;;;;;27.17;15.43;;;;;;;;;;5089091;28;20075;-70
2022/12/01 10:32:57;;;;;;;30.13;16.77;;;;;;;;;;5087638;28;20442;-70
2022/12/01 10:35:25;;;;;;;29.48;17.42;;;;;;;;;;5087559;28;20093;-70
2022/12/01 10:37:54;;;;;;;25.92;15.68;;;;;;;;;;5084808;28;20047;-70
2022/12/01 10:40:21;;;;;;;29.80;17.92;;;;;;;;;;5064984;28;20059;-69
2022/12/01 10:42:48;;;;;;;26.88;16.95;;;;;;;;;;5079357;28;20048;-69
2022/12/01 10:45:16;;;;;;;25.55;16.20;;;;;;;;;;5086102;28;20097;-69
2022/12/01 10:48:01;;;;;;;31.08;17.92;;;;;;;;;;5085467;28;20055;-69
2022/12/01 10:50:28;;;;;;;29.25;17.67;;;;;;;;;;5087610;28;20599;-69
2022/12/01 10:52:54;;;;;;;26.80;17.30;;;;;;;;;;5083759;28;20139;-66
2022/12/01 10:55:27;;;;;;;22.17;14.57;;;;;;;;;;5086203;28;20131;-69
2022/12/01 10:57:55;;;;;;;23.92;14.23;;;;;;;;;;5066211;28;20052;-69
2022/12/01 11:00:22;;;;;;;21.25;14.43;;;;;;;;;;5087762;28;20131;-69
2022/12/01 11:02:48;;;;;;;25.08;14.70;;;;;;;;;;5065601;28;20182;-69
2022/12/01 11:05:22;;;;;;;20.35;12.93;;;;;;;;;;5064417;28;20083;-70
2022/12/01 11:07:48;;;;;;;;;;;;;;;;;;5062440;28;20044;-69
2022/12/01 11:10:14;;;;;;;22.63;12.60;;;;;;;;;;5083343;28;19930;-69
2022/12/01 11:12:42;;;;;;;20.70;12.63;;;;;;;;;;5086796;28;20036;-70
2022/12/01 11:15:17;;;;;;;17.38;10.23;;;;;;;;;;5064893;28;20495;-70
2022/12/01 11:17:44;;;;;;;16.33;10.98;;;;;;;;;;5087911;28;20044;-69
2022/12/01 11:20:25;;;;;;;17.92;11.55;;;;;;;;;;5083365;28;20063;-70
2022/12/01 11:22:51;;;;;;;18.77;10.73;;;;;;;;;;5086538;28;20049;-69
2022/12/01 11:25:19;;;;;;;17.13;9.77;;;;;;;;;;5080596;28;20048;-70
2022/12/01 11:27:49;;;;;;;17.50;10.98;;;;;;;;;;5061230;28;20040;-69
2022/12/01 11:30:24;;;;;;;19.73;10.38;;;;;;;;;;5065748;28;20048;-69
2022/12/01 11:32:54;;;;;;;17.10;11.13;;;;;;;;;;5055722;28;20403;-69
2022/12/01 11:35:22;;;;;;;18.10;10.85;;;;;;;;;;5081471;28;20046;-69
2022/12/01 11:37:50;;;;;;;17.00;10.98;;;;;;;;;;5076610;28;20044;-69
2022/12/01 11:40:27;;;;;;;17.55;10.70;;;;;;;;;;5067431;28;20064;-69
2022/12/01 11:42:55;;;;;;;17.98;10.20;;;;;;;;;;5069759;28;20514;-69
2022/12/01 11:45:21;;;;;;;17.92;11.77;;;;;;;;;;5083078;28;20135;-69
2022/12/01 11:48:06;;;;;;;18.67;11.93;;;;;;;;;;5059106;28;20179;-70
2022/12/01 11:50:33;;;;;;;21.92;12.18;;;;;;;;;;5083259;28;20036;-69
2022/12/01 11:53:00;;;;;;;19.63;12.02;;;;;;;;;;5086820;28;20361;-69
2022/12/01 11:55:27;;;;;;;19.40;13.02;;;;;;;;;;5086250;28;20048;-69
2022/12/01 11:57:55;;;;;;;22.10;12.55;;;;;;;;;;5084376;28;20069;-69
2022/12/01 12:00:23;;;;;;;20.10;12.07;;;;;;;;;;5062113;28;20045;-69
2022/12/01 12:02:56;;;;;;;19.98;12.10;;;;;;;;;;5085015;28;20037;-69
2022/12/01 12:05:41;;;;;;;20.92;12.75;;;;;;;;;;5038800;28;20396;-69
2022/12/01 12:08:13;;;;;;;20.02;13.10;;;;;;;;;;5060184;28;20557;-69
2022/12/01 12:10:52;;;;;;;24.75;12.82;;;;;;;;;;5067848;28;20039;-69
2022/12/01 12:13:26;;;;;;;22.42;12.52;;;;;;;;;;5083758;28;20460;-69
2022/12/01 12:15:52;;;;;;;;;;;;;;;;;;5082637;28;20040;-69
2022/12/01 12:18:41;;;;;;;20.17;12.43;;;;;;;;;;5077764;28;20371;-69
2022/12/01 12:21:20;;;;;;;20.63;12.43;;;;;;;;;;5057465;28;20036;-69
2022/12/01 12:23:55;;;;;;;19.10;11.68;;;;;;;;;;5078205;28;20119;-70
2022/12/01 12:26:24;;;;;;;19.30;12.20;;;;;;;;;;5051868;28;20044;-69
2022/12/01 12:28:54;;;;;;;17.60;11.15;;;;;;;;;;5071375;28;20044;-70
2022/12/01 12:31:29;;;;;;;18.02;11.13;;;;;;;;;;5054541;28;20044;-73
2022/12/01 12:34:11;;;;;;;18.67;11.35;;;;;;;;;;5073976;28;20056;-69
2022/12/01 12:36:49;;;;;;;16.17;11.00;;;;;;;;;;5070963;28;20282;-70
2022/12/01 12:39:15;;;;;;;16.33;10.45;;;;;;;;;;5072236;28;20048;-69
2022/12/01 12:41:44;;;;;;;15.80;9.85;;;;;;;;;;5070435;28;20483;-70
2022/12/01 12:44:29;;;;;;;16.27;10.85;;;;;;;;;;5071762;28;20048;-70
2022/12/01 12:47:03;;;;;;;16.33;10.60;;;;;;;;;;5071741;28;20467;-69
2022/12/01 12:49:35;;;;;;;12.65;8.68;;;;;;;;;;5054121;28;20052;-69
2022/12/01 12:52:04;;;;;;;15.15;8.70;;;;;;;;;;5068946;28;20052;-69
2022/12/01 12:54:32;;;;;;;13.73;8.93;;;;;;;;;;5051695;28;20049;-69
2022/12/01 12:57:01;;;;;;;14.15;8.80;;;;;;;;;;5055310;28;20056;-69
2022/12/01 12:59:31;;;;;;;14.00;8.27;;;;;;;;;;5044509;28;20396;-68
2022/12/01 13:02:00;;;;;;;15.77;8.32;;;;;;;;;;5045803;28;20045;-68
2022/12/01 13:04:34;;;;;;;15.55;8.35;;;;;;;;;;5048371;28;20374;-67
2022/12/01 13:07:03;;;;;;;17.80;8.65;;;;;;;;;;5053676;28;20044;-68
2022/12/01 13:09:38;;;;;;;14.30;9.63;;;;;;;;;;5047249;28;20044;-68
2022/12/01 13:12:22;;;;;;;17.27;10.73;;;;;;;;;;5048528;28;20128;-68
2022/12/01 13:14:48;;;;;;;;;;;;;;;;;;5051617;28;20132;-68
2022/12/01 13:17:22;;;;;;;17.08;10.75;;;;;;;;;;5047748;28;20327;-69
2022/12/01 13:19:48;;;;;;;18.60;12.30;;;;;;;;;;5065040;28;20419;-68
2022/12/01 13:22:16;;;;;;;17.98;10.88;;;;;;;;;;5052672;28;20144;-68
2022/12/01 13:24:42;;;;;;;17.38;11.02;;;;;;;;;;5050448;28;20094;-68
2022/12/01 13:27:08;;;;;;;17.80;11.68;;;;;;;;;;5055479;28;20056;-68
2022/12/01 13:29:36;;;;;;;19.60;11.20;;;;;;;;;;5058731;28;20045;-68
2022/12/01 13:32:03;;;;;;;16.80;11.70;;;;;;;;;;5052647;28;20041;-68
2022/12/01 13:34:37;;;;;;;20.60;12.40;;;;;;;;;;5053611;28;20062;-68
2022/12/01 13:37:04;;;;;;;20.80;12.55;;;;;;;;;;5051336;28;20131;-68
2022/12/01 13:39:37;;;;;;;20.23;12.68;;;;;;;;;;5058720;28;20036;-68
2022/12/01 13:42:06;;;;;;;22.60;12.93;;;;;;;;;;5058574;28;20051;-68
2022/12/01 13:44:37;;;;;;;22.63;14.15;;;;;;;;;;5062918;28;20317;-67
2022/12/01 13:47:20;;;;;;;21.75;13.70;;;;;;;;;;5058698;28;20059;-68
2022/12/01 13:49:48;;;;;;;21.20;13.90;;;;;;;;;;5036529;28;20396;-68
2022/12/01 13:52:25;;;;;;;21.08;13.73;;;;;;;;;;5054217;28;20095;-68
2022/12/01 13:55:06;;;;;;;20.52;12.95;;;;;;;;;;5070000;28;20152;-68
2022/12/01 13:57:34;;;;;;;21.30;13.52;;;;;;;;;;5062166;28;20513;-68
2022/12/01 14:00:04;;;;;;;21.27;14.07;;;;;;;;;;5075707;28;20133;-68
2022/12/01 14:02:32;;;;;;;20.08;12.57;;;;;;;;;;5052056;28;20044;-68
2022/12/01 14:05:19;;;;;;;20.08;12.68;;;;;;;;;;5074249;28;20036;-68
2022/12/01 14:07:45;;;;;;;22.63;13.50;;;;;;;;;;5070162;28;20040;-68
2022/12/01 14:10:21;;;;;;;21.05;13.90;;;;;;;;;;5056644;28;20056;-67
2022/12/01 14:12:48;;;;;;;19.65;12.85;;;;;;;;;;5059187;28;20067;-68
2022/12/01 14:15:23;;;;;;;22.30;13.48;;;;;;;;;;5079875;28;20051;-75
2022/12/01 14:17:58;;;;;;;20.40;12.60;;;;;;;;;;5069885;28;20123;-68
2022/12/01 14:20:26;;;;;;;22.10;13.13;;;;;;;;;;5052739;28;20055;-68
2022/12/01 14:23:04;;;;;;;23.65;13.90;;;;;;;;;;5073790;28;20097;-68
2022/12/01 14:25:31;;;;;;;21.77;14.00;;;;;;;;;;5056550;28;20048;-68
2022/12/01 14:27:58;;;;;;;22.77;13.43;;;;;;;;;;5077387;28;20085;-67